WADDYDBY

Guest
Details From WADD - Denpasar Ngurah Rai Intl
To YDBY - Derby
Flight Number -
Tags generated
Created
Modified
Stats Distance 752 nm / 1,392 km
Max Altitude 35,000 ft / 10,668 m
Waypoints 6
Social Downloads 0
Likes 0
Share VATSIM

Download

Looking for another format? Having issues loading an existing format? Contact us
Advertisement - Login to hide

Notes

Basic altitude profile: - Ascent Rate: 2500ft/min - Ascent Speed: 250kts - Cruise Altitude: 35000ft - Cruise Speed: 420kts - Descent Rate: 1500ft/min - Descent Speed: 250kts Options: - Use NATs: yes - Use PACOTS: yes - Use low airways: yes - Use high airways: yes

Route

WADD BLI A576 CIN YDBY

ID Type Via Altitude Latitude Longitude Leg Dist Tot Dist Heading (true) Name
O WADD APT - 0 ft / 0 m -8.74817˚ 115.16717˚ - 0 nm - Denpasar Ngurah Rai Intl
BLI VOR - 0 ft / 0 m -8.75058˚ 115.16331˚ 0 nm 0 nm 238° / 238° BALI VOR-DME
ILDAM FIX A576 (AWY-LO) 35,000 ft / 10,668 m -10.59211˚ 116.88456˚ 150 nm 150 nm 137° / 137° -
ATMAP FIX A576 (AWY-HI) 35,000 ft / 10,668 m -12.00000˚ 118.25500˚ 116 nm 267 nm 136° / 136° -
CIN VOR A576 (AWY-LO) 17,000 ft / 5,182 m -17.58889˚ 123.85194˚ 467 nm 734 nm 137° / 135° CURTIN VOR-DME
O YDBY APT - 0 ft / 0 m -17.37163˚ 123.66195˚ 16 nm 751 nm 320° / 320° Derby

Altitude Profile

Advertisement - Login to hide

Weather


0- 5 10 15 20 25 30 35+ Temperature / ° C

Clouds and Precipitation
Forecast for 2017-12-15 06:00 UTC. Updated an hour ago

Ground ~20,000 ft ~40,000 ft Winds

WADD

Details ICAO WADD (DPS)
Name Denpasar Ngurah Rai Intl
Region Indonesia
Timezone Asia/Makassar (UTC+8.0)
Stats Elevation 14 ft / 4 m (AMSL)
Location -8.748169° 115.167174°
Runways 1
Magnetic Variation 1.055° E

METAR

WADD 150600Z 27009KT 9999 FEW016CB FEW016 30/25 Q1007 NOSIG RMK CB TO NW N NE

Decode

TAF

TAF WADD 150500Z 1506/1606 27010KT 9999 SCT016 TEMPO 1506/1510 FEW015CB SCT015 BECMG 1514/1516 VRB05KT TEMPO 1520/1600 5000 RA BKN015

Decode

Departure Runways

ID Width Length Bearing (true) Bearing (mag) Surface Threshold Offset Overrun Length
09 148 ft / 45 m 9,779 ft / 2,981 m 87.71° 86.65° Asphalt 121 ft / 37 m 75 ft / 23 m
27 148 ft / 45 m 9,779 ft / 2,981 m 267.70° 266.64° Asphalt 0 ft / 0 m 197 ft / 60 m

YDBY

Details ICAO YDBY (DRB)
Name Derby
Region Australia
Timezone Australia/Perth (UTC+8.0)
Stats Elevation 24 ft / 7 m (AMSL)
Location -17.371626° 123.661955°
Runways 2
Magnetic Variation 1.974° E

METAR

YDBY 150600Z AUTO 31009KT 9999 // NCD 39/19 Q1003

Decode

TAF

Not found

Destination Runways

ID Width Length Bearing (true) Bearing (mag) Surface Threshold Offset Overrun Length
05 98 ft / 30 m 3,793 ft / 1,156 m 56.00° 54.03° Unknown 0 ft / 0 m 0 ft / 0 m
11 98 ft / 30 m 5,694 ft / 1,736 m 110.50° 108.53° Asphalt 0 ft / 0 m 200 ft / 61 m
23 98 ft / 30 m 3,793 ft / 1,156 m 236.00° 234.03° Unknown 0 ft / 0 m 0 ft / 0 m
29 98 ft / 30 m 5,694 ft / 1,736 m 290.50° 288.53° Asphalt 0 ft / 0 m 299 ft / 91 m